createdAt,value
2023-05-01T00:01:35.488Z,7.45
2023-05-01T00:04:07.247Z,6.88
2023-05-01T00:06:34.667Z,6.57
2023-05-01T00:09:01.868Z,7.70
2023-05-01T00:11:29.105Z,7.18
2023-05-01T00:14:00.124Z,7.00
2023-05-01T00:16:28.462Z,9.60
2023-05-01T00:18:56.801Z,6.50
2023-05-01T00:21:24.081Z,7.93
2023-05-01T00:23:51.948Z,8.13
2023-05-01T00:26:19.173Z,8.98
2023-05-01T00:28:49.885Z,7.97
2023-05-01T00:31:20.556Z,6.95
2023-05-01T00:33:47.909Z,7.60
2023-05-01T00:36:15.184Z,7.03
2023-05-01T00:38:42.513Z,8.57
2023-05-01T00:41:09.901Z,6.93
2023-05-01T00:43:37.313Z,8.25
2023-05-01T00:46:04.691Z,9.00
2023-05-01T00:48:32.092Z,8.45
2023-05-01T00:50:59.261Z,8.15
2023-05-01T00:53:26.826Z,7.90
2023-05-01T00:55:54.167Z,7.80
2023-05-01T00:58:24.374Z,6.53
2023-05-01T01:00:52.340Z,8.40
2023-05-01T01:03:23.081Z,10.00
2023-05-01T01:06:11.214Z,8.98
2023-05-01T01:08:49.915Z,7.70
2023-05-01T01:11:22.065Z,6.78
2023-05-01T01:14:11.568Z,7.53
2023-05-01T01:17:07.717Z,7.78
2023-05-01T01:19:34.959Z,7.40
2023-05-01T01:22:07.628Z,7.82
2023-05-01T01:24:38.259Z,7.85
2023-05-01T01:27:24.443Z,7.90
2023-05-01T01:29:51.733Z,6.18
2023-05-01T01:32:37.804Z,9.55
2023-05-01T01:35:11.884Z,7.68
2023-05-01T01:37:45.404Z,7.28
2023-05-01T01:40:15.051Z,7.32
2023-05-01T01:42:49.995Z,8.93
2023-05-01T01:45:19.980Z,11.15
2023-05-01T01:47:48.959Z,12.27
2023-05-01T01:50:17.127Z,7.07
2023-05-01T01:52:47.530Z,10.27
2023-05-01T01:55:16.394Z,11.35
2023-05-01T01:57:46.164Z,8.60
2023-05-01T02:00:16.460Z,7.53
2023-05-01T02:02:47.903Z,9.35
2023-05-01T02:05:16.014Z,8.98
2023-05-01T02:07:44.055Z,11.20
2023-05-01T02:10:14.054Z,7.85
2023-05-01T02:12:46.761Z,10.95
2023-05-01T02:15:14.869Z,9.02
2023-05-01T02:17:42.936Z,10.15
2023-05-01T02:20:12.370Z,8.10
2023-05-01T02:22:41.434Z,9.50
2023-05-01T02:25:13.092Z,8.82
2023-05-01T02:27:47.828Z,12.07
2023-05-01T02:30:15.735Z,10.40
2023-05-01T02:32:43.084Z,10.05
2023-05-01T02:35:11.736Z,8.85
2023-05-01T02:37:39.150Z,8.50
2023-05-01T02:40:07.445Z,7.85
2023-05-01T02:42:39.301Z,10.00
2023-05-01T02:45:08.312Z,9.43
2023-05-01T02:47:41.246Z,8.23
2023-05-01T02:50:09.219Z,7.43
2023-05-01T02:52:37.221Z,8.15
2023-05-01T02:55:26.783Z,8.77
2023-05-01T02:57:56.314Z,9.07
2023-05-01T03:00:23.582Z,8.35
2023-05-01T03:02:51.263Z,7.05
2023-05-01T03:05:19.890Z,7.47
2023-05-01T03:07:48.364Z,7.30
2023-05-01T03:10:15.788Z,7.40
2023-05-01T03:12:43.160Z,6.25
2023-05-01T03:15:12.455Z,8.93
2023-05-01T03:17:39.696Z,10.15
2023-05-01T03:20:11.096Z,6.88
2023-05-01T03:22:38.953Z,10.18
2023-05-01T03:25:07.819Z,8.85
2023-05-01T03:27:35.066Z,7.75
2023-05-01T03:30:04.604Z,8.68
2023-05-01T03:32:35.400Z,9.15
2023-05-01T03:35:03.881Z,7.55
2023-05-01T03:37:31.641Z,8.27
2023-05-01T03:39:58.979Z,7.35
2023-05-01T03:42:46.478Z,7.53
2023-05-01T03:45:20.283Z,8.80
2023-05-01T03:47:50.665Z,9.40
2023-05-01T03:50:19.353Z,9.10
2023-05-01T03:52:49.482Z,9.95
2023-05-01T03:55:16.840Z,10.07
2023-05-01T03:57:54.876Z,12.63
2023-05-01T04:00:23.561Z,9.57
2023-05-01T04:02:51.058Z,9.52
2023-05-01T04:05:23.000Z,10.80
2023-05-01T04:07:54.104Z,8.73
2023-05-01T04:10:21.292Z,9.95
2023-05-01T04:12:57.072Z,10.93
2023-05-01T04:15:24.348Z,9.05
2023-05-01T04:17:52.863Z,11.25
2023-05-01T04:20:20.497Z,9.13
2023-05-01T04:22:48.037Z,10.00
2023-05-01T04:25:15.605Z,9.73
2023-05-01T04:27:48.313Z,11.85
2023-05-01T04:30:16.161Z,11.77
2023-05-01T04:32:47.126Z,11.13
2023-05-01T04:37:44.456Z,9.90
2023-05-01T04:40:12.133Z,11.35
2023-05-01T04:42:40.666Z,8.70
2023-05-01T04:45:10.980Z,9.55
2023-05-01T04:47:38.352Z,8.82
2023-05-01T04:50:06.584Z,11.02
2023-05-01T04:52:33.773Z,9.90
2023-05-01T04:55:03.789Z,12.55
2023-05-01T04:57:34.591Z,14.27
2023-05-01T05:00:05.598Z,10.98
2023-05-01T05:02:34.732Z,12.68
2023-05-01T05:05:02.156Z,10.90
2023-05-01T05:07:29.325Z,10.93
2023-05-01T05:10:19.836Z,12.15
2023-05-01T05:12:56.940Z,7.70
2023-05-01T05:15:27.184Z,9.32
2023-05-01T05:17:56.454Z,9.73
2023-05-01T05:20:24.510Z,11.60
2023-05-01T05:22:52.371Z,11.80
2023-05-01T05:25:25.698Z,10.70
2023-05-01T05:27:53.206Z,12.15
2023-05-01T05:30:20.551Z,11.50
2023-05-01T05:32:47.993Z,10.98
2023-05-01T05:35:17.235Z,12.13
2023-05-01T05:37:46.043Z,14.45
2023-05-01T05:40:14.011Z,10.85
2023-05-01T05:42:52.688Z,13.60
2023-05-01T05:45:20.821Z,11.88
2023-05-01T05:47:48.502Z,13.82
2023-05-01T05:50:16.181Z,11.25
2023-05-01T05:52:45.420Z,13.68
2023-05-01T05:55:13.492Z,11.07
2023-05-01T05:57:44.095Z,11.60
2023-05-01T06:00:12.014Z,11.23
2023-05-01T06:02:48.611Z,14.25
2023-05-01T06:05:16.426Z,15.15
2023-05-01T06:07:44.342Z,13.45
2023-05-01T06:10:11.728Z,11.93
2023-05-01T06:12:41.955Z,15.48
2023-05-01T06:15:16.899Z,11.73
2023-05-01T06:17:49.607Z,11.30
2023-05-01T06:20:17.013Z,11.75
2023-05-01T06:22:44.357Z,12.70
2023-05-01T06:25:29.527Z,12.35
2023-05-01T06:27:57.928Z,12.73
2023-05-01T06:30:25.284Z,12.63
2023-05-01T06:32:52.893Z,13.43
2023-05-01T06:35:21.390Z,10.35
2023-05-01T06:37:48.603Z,13.40
2023-05-01T06:40:16.521Z,12.52
2023-05-01T06:42:43.755Z,21.13
2023-05-01T06:45:10.592Z,13.25
2023-05-01T06:47:37.787Z,12.30
2023-05-01T06:50:07.378Z,12.30
2023-05-01T06:52:34.688Z,14.73
2023-05-01T06:55:01.661Z,12.48
2023-05-01T06:57:28.453Z,12.73
2023-05-01T06:59:56.211Z,13.18
2023-05-01T07:02:23.778Z,13.43
2023-05-01T07:04:51.171Z,12.60
2023-05-01T07:07:18.467Z,10.50
2023-05-01T07:09:45.167Z,15.73
2023-05-01T07:12:12.420Z,14.45
2023-05-01T07:14:40.624Z,12.75
2023-05-01T07:17:09.243Z,12.23
2023-05-01T07:19:36.381Z,13.43
2023-05-01T07:22:04.732Z,11.60
2023-05-01T07:24:32.131Z,13.27
2023-05-01T07:26:59.955Z,13.05
2023-05-01T07:29:27.066Z,13.95
2023-05-01T07:31:54.687Z,12.07
2023-05-01T07:34:21.697Z,13.00
2023-05-01T07:36:48.816Z,13.57
2023-05-01T07:39:17.563Z,11.75
2023-05-01T07:41:44.786Z,15.02
2023-05-01T07:44:11.872Z,12.27
2023-05-01T07:46:39.092Z,13.68
2023-05-01T07:49:06.434Z,12.43
2023-05-01T07:51:33.353Z,12.25
2023-05-01T07:54:04.400Z,11.95
2023-05-01T07:56:32.125Z,12.27
2023-05-01T07:58:59.500Z,14.35
2023-05-01T08:01:26.726Z,11.82
2023-05-01T08:03:54.016Z,13.10
2023-05-01T08:06:21.277Z,16.77
2023-05-01T08:08:47.986Z,12.48
2023-05-01T08:11:16.312Z,12.63
2023-05-01T08:13:43.537Z,12.60
2023-05-01T08:16:10.833Z,15.18
2023-05-01T08:18:38.091Z,11.52
2023-05-01T08:21:04.820Z,12.27
2023-05-01T08:23:34.814Z,11.45
2023-05-01T08:26:02.002Z,13.30
2023-05-01T08:28:29.226Z,12.48
2023-05-01T08:30:56.341Z,13.80
2023-05-01T08:33:24.354Z,12.18
2023-05-01T08:35:51.496Z,13.93
2023-05-01T08:38:18.580Z,16.38
2023-05-01T08:40:53.849Z,11.18
2023-05-01T08:43:21.648Z,13.75
2023-05-01T08:45:48.930Z,13.65
2023-05-01T08:48:18.727Z,12.65
2023-05-01T08:50:46.920Z,12.77
2023-05-01T08:53:16.009Z,13.30
2023-05-01T08:55:47.222Z,12.15
2023-05-01T08:58:15.112Z,11.13
2023-05-01T09:00:42.455Z,12.95
2023-05-01T09:03:12.184Z,11.57
2023-05-01T09:05:39.468Z,12.88
2023-05-01T09:08:06.615Z,12.60
2023-05-01T09:10:34.818Z,11.18
2023-05-01T09:13:03.888Z,14.25
2023-05-01T09:15:31.082Z,10.32
2023-05-01T09:18:02.987Z,12.73
2023-05-01T09:20:31.732Z,11.20
2023-05-01T09:22:58.990Z,12.77
2023-05-01T09:25:26.246Z,13.55
2023-05-01T09:27:53.452Z,12.98
2023-05-01T09:30:41.562Z,10.50
2023-05-01T09:33:12.989Z,14.38
2023-05-01T09:35:54.388Z,12.63
2023-05-01T09:38:29.440Z,11.65
2023-05-01T09:41:04.527Z,13.65
2023-05-01T09:43:31.975Z,12.60
2023-05-01T09:46:01.806Z,14.52
2023-05-01T09:50:56.336Z,13.73
2023-05-01T09:53:38.414Z,13.05
2023-05-01T09:56:05.457Z,10.82
2023-05-01T09:58:32.650Z,10.68
2023-05-01T10:01:00.304Z,11.88
2023-05-01T10:03:27.978Z,15.20
2023-05-01T10:05:56.995Z,7.90
2023-05-01T10:08:24.418Z,9.80
2023-05-01T10:11:08.181Z,9.95
2023-05-01T10:13:34.897Z,8.93
2023-05-01T10:16:07.236Z,9.10
2023-05-01T10:18:37.978Z,9.40
2023-05-01T10:21:05.209Z,9.80
2023-05-01T10:23:33.156Z,9.65
2023-05-01T10:26:03.310Z,9.20
2023-05-01T10:28:31.194Z,10.35
2023-05-01T10:30:58.547Z,9.45
2023-05-01T10:33:26.526Z,8.75
2023-05-01T10:35:57.276Z,9.20
2023-05-01T10:38:30.455Z,9.15
2023-05-01T10:40:57.884Z,11.60
2023-05-01T10:43:29.634Z,8.48
2023-05-01T10:46:08.955Z,9.23
2023-05-01T10:48:39.058Z,9.02
2023-05-01T10:51:13.461Z,9.65
2023-05-01T10:53:45.186Z,9.50
2023-05-01T10:56:30.062Z,8.32
2023-05-01T10:58:59.064Z,9.30
2023-05-01T11:01:38.210Z,10.57
2023-05-01T11:04:10.606Z,12.02
2023-05-01T11:06:38.222Z,10.93
2023-05-01T11:09:43.389Z,11.35
2023-05-01T11:12:12.136Z,12.25
2023-05-01T11:14:57.924Z,9.35
2023-05-01T11:17:40.626Z,9.80
2023-05-01T11:20:08.568Z,12.00
2023-05-01T11:22:36.760Z,11.20
2023-05-01T11:25:04.766Z,14.93
2023-05-01T11:27:32.321Z,10.43
2023-05-01T11:29:59.925Z,10.10
2023-05-01T11:32:32.577Z,10.45
2023-05-01T11:34:59.741Z,11.25
2023-05-01T11:37:41.009Z,12.35
2023-05-01T11:40:19.784Z,12.38
2023-05-01T11:42:46.913Z,14.63
2023-05-01T11:45:13.957Z,10.13
2023-05-01T11:47:41.342Z,14.15
2023-05-01T11:50:09.349Z,9.82
2023-05-01T11:53:03.279Z,11.65
2023-05-01T11:55:34.782Z,10.25
2023-05-01T11:58:02.013Z,11.90
2023-05-01T12:00:29.552Z,10.82
2023-05-01T12:02:59.688Z,12.32
2023-05-01T12:05:28.894Z,13.25
2023-05-01T12:08:15.667Z,12.02
2023-05-01T12:10:43.954Z,13.30
2023-05-01T12:13:13.477Z,11.48
2023-05-01T12:15:45.447Z,11.02
2023-05-01T12:18:13.799Z,18.45
2023-05-01T12:20:47.318Z,11.75
2023-05-01T12:23:18.896Z,11.45
2023-05-01T12:25:46.733Z,13.00
2023-05-01T12:28:19.437Z,14.93
2023-05-01T12:30:49.679Z,9.93
2023-05-01T12:33:22.341Z,11.95
2023-05-01T12:35:50.819Z,11.13
2023-05-01T12:38:20.017Z,11.27
2023-05-01T12:41:08.993Z,14.38
2023-05-01T12:43:39.160Z,12.77
2023-05-01T12:46:13.933Z,11.02
2023-05-01T12:48:41.528Z,12.07
2023-05-01T12:51:08.338Z,12.48
2023-05-01T12:53:35.567Z,13.45
2023-05-01T12:56:06.727Z,13.23
2023-05-01T12:58:37.704Z,16.05
2023-05-01T13:01:05.336Z,13.88
2023-05-01T13:03:33.480Z,11.70
2023-05-01T13:06:03.019Z,13.35
2023-05-01T13:08:30.194Z,11.85
2023-05-01T13:10:59.124Z,14.55
2023-05-01T13:13:27.894Z,11.85
2023-05-01T13:16:05.478Z,12.23
2023-05-01T13:18:46.354Z,13.40
2023-05-01T13:21:16.247Z,13.07
2023-05-01T13:23:53.022Z,12.80
2023-05-01T13:26:29.175Z,12.38
2023-05-01T13:31:24.374Z,13.23
2023-05-01T13:33:54.270Z,13.13
2023-05-01T13:36:26.329Z,13.07
2023-05-01T13:38:56.111Z,12.63
2023-05-01T13:41:27.889Z,12.95
2023-05-01T13:43:56.899Z,11.88
2023-05-01T13:46:25.807Z,11.88
2023-05-01T13:48:53.223Z,12.73
2023-05-01T13:51:23.191Z,14.23
2023-05-01T13:56:17.467Z,11.60
2023-05-01T13:58:45.141Z,12.30
2023-05-01T14:01:18.698Z,11.80
2023-05-01T14:03:45.978Z,14.75
2023-05-01T14:06:20.505Z,15.02
2023-05-01T14:08:48.827Z,11.57
2023-05-01T14:11:16.217Z,11.50
2023-05-01T14:13:45.106Z,10.48
2023-05-01T14:16:22.003Z,8.68
2023-05-01T14:18:51.347Z,11.07
2023-05-01T14:21:19.192Z,9.40
2023-05-01T14:23:46.208Z,8.75
2023-05-01T14:26:18.674Z,9.30
2023-05-01T14:28:46.524Z,11.65
2023-05-01T14:31:23.714Z,9.02
2023-05-01T14:33:55.405Z,8.85
2023-05-01T14:36:22.635Z,8.15
2023-05-01T14:38:50.689Z,8.65
2023-05-01T14:41:21.414Z,7.95
2023-05-01T14:43:51.170Z,10.13
2023-05-01T14:46:31.839Z,9.20
2023-05-01T14:48:59.985Z,9.30
2023-05-01T14:51:29.939Z,12.00
2023-05-01T14:53:57.369Z,7.82
2023-05-01T14:56:24.750Z,9.05
2023-05-01T14:58:52.130Z,6.70
2023-05-01T15:01:19.452Z,8.52
2023-05-01T15:03:46.826Z,8.18
2023-05-01T15:06:16.329Z,8.52
2023-05-01T15:08:43.898Z,9.23
2023-05-01T15:11:11.487Z,9.18
2023-05-01T15:13:39.652Z,9.82
2023-05-01T15:16:08.099Z,9.05
2023-05-01T15:18:36.518Z,11.27
2023-05-01T15:21:03.923Z,7.88
2023-05-01T15:23:31.801Z,9.70
2023-05-01T15:25:59.402Z,12.05
2023-05-01T15:28:32.558Z,12.52
2023-05-01T15:31:00.418Z,11.70
2023-05-01T15:33:27.782Z,10.95
2023-05-01T15:35:55.187Z,12.70
2023-05-01T15:38:30.332Z,14.02
2023-05-01T15:40:57.863Z,11.50
2023-05-01T15:43:30.683Z,11.05
2023-05-01T15:46:00.409Z,11.98
2023-05-01T15:48:30.741Z,11.15
2023-05-01T15:50:57.930Z,12.25
2023-05-01T15:53:25.103Z,10.95
2023-05-01T15:55:52.344Z,13.13
2023-05-01T15:58:19.812Z,11.77
2023-05-01T16:00:48.291Z,11.45
2023-05-01T16:03:17.461Z,11.75
2023-05-01T16:05:49.068Z,12.18
2023-05-01T16:08:18.037Z,11.50
2023-05-01T16:10:45.486Z,10.38
2023-05-01T16:13:12.765Z,11.20
2023-05-01T16:15:39.965Z,10.95
2023-05-01T16:18:07.457Z,10.00
2023-05-01T16:20:42.542Z,12.13
2023-05-01T16:23:09.737Z,11.35
2023-05-01T16:25:37.296Z,12.15
2023-05-01T16:28:06.206Z,10.25
2023-05-01T16:30:33.429Z,11.60
2023-05-01T16:33:03.062Z,13.30
2023-05-01T16:35:30.327Z,16.20
2023-05-01T16:37:59.895Z,13.93
2023-05-01T16:40:27.035Z,14.95
2023-05-01T16:42:54.636Z,15.30
2023-05-01T16:45:22.070Z,16.98
2023-05-01T16:47:50.284Z,15.10
2023-05-01T16:50:17.471Z,15.30
2023-05-01T16:52:44.637Z,15.05
2023-05-01T16:55:11.877Z,14.73
2023-05-01T16:57:39.224Z,13.27
2023-05-01T17:00:09.230Z,15.88
2023-05-01T17:02:36.363Z,13.75
2023-05-01T17:05:03.562Z,14.52
2023-05-01T17:07:30.762Z,14.45
2023-05-01T17:10:00.941Z,13.57
2023-05-01T17:12:29.191Z,13.50
2023-05-01T17:14:56.835Z,13.00
2023-05-01T17:17:24.938Z,12.60
2023-05-01T17:19:52.652Z,11.90
2023-05-01T17:22:20.007Z,13.05
2023-05-01T17:24:47.722Z,15.55
2023-05-01T17:27:18.119Z,12.25
2023-05-01T17:29:46.487Z,13.25
2023-05-01T17:32:43.169Z,12.93
2023-05-01T17:35:10.980Z,11.90
2023-05-01T17:37:42.703Z,15.10
2023-05-01T17:40:13.403Z,13.98
2023-05-01T17:42:42.867Z,14.25
2023-05-01T17:45:10.505Z,15.32
2023-05-01T17:47:42.752Z,15.80
2023-05-01T17:50:11.449Z,16.73
2023-05-01T17:52:42.139Z,17.65
2023-05-01T17:55:09.825Z,17.77
2023-05-01T17:57:37.197Z,17.58
2023-05-01T18:00:05.434Z,18.67
2023-05-01T18:02:39.629Z,18.60
2023-05-01T18:05:06.976Z,16.33
2023-05-01T18:07:37.076Z,17.30
2023-05-01T18:10:04.417Z,20.20
2023-05-01T18:12:31.891Z,18.75
2023-05-01T18:15:01.309Z,20.50
2023-05-01T18:17:28.048Z,22.40
2023-05-01T18:19:55.349Z,22.30
2023-05-01T18:22:22.650Z,21.85
2023-05-01T18:24:50.317Z,21.75
2023-05-01T18:27:19.125Z,23.00
2023-05-01T18:29:46.518Z,21.98
2023-05-01T18:32:14.265Z,22.92
2023-05-01T18:34:44.023Z,21.83
2023-05-01T18:37:11.391Z,26.27
2023-05-01T18:39:39.425Z,24.10
2023-05-01T18:42:06.676Z,23.65
2023-05-01T18:44:33.430Z,25.20
2023-05-01T18:47:00.198Z,23.67
2023-05-01T18:49:27.830Z,25.35
2023-05-01T18:51:54.981Z,27.17
2023-05-01T18:54:23.110Z,24.05
2023-05-01T18:56:50.859Z,24.83
2023-05-01T18:59:18.108Z,24.27
2023-05-01T19:01:45.697Z,26.70
2023-05-01T19:04:13.305Z,25.38
2023-05-01T19:06:40.814Z,27.38
2023-05-01T19:09:09.468Z,28.15
2023-05-01T19:11:39.369Z,23.92
2023-05-01T19:14:08.417Z,28.25
2023-05-01T19:16:35.693Z,24.80
2023-05-01T19:19:09.748Z,27.17
2023-05-01T19:21:37.269Z,25.38
2023-05-01T19:24:04.422Z,26.10
2023-05-01T19:26:32.561Z,29.08
2023-05-01T19:28:59.785Z,25.60
2023-05-01T19:31:27.170Z,26.05
2023-05-01T19:33:55.167Z,26.98
2023-05-01T19:36:23.279Z,25.83
2023-05-01T19:38:50.487Z,29.08
2023-05-01T19:41:17.769Z,28.73
2023-05-01T19:43:49.688Z,31.10
2023-05-01T19:46:16.920Z,31.67
2023-05-01T19:48:45.210Z,30.50
2023-05-01T19:51:15.534Z,28.77
2023-05-01T19:53:43.219Z,33.47
2023-05-01T19:56:10.610Z,32.13
2023-05-01T19:58:41.590Z,31.27
2023-05-01T20:01:11.696Z,32.42
2023-05-01T20:06:06.416Z,30.50
2023-05-01T20:08:36.769Z,34.88
2023-05-01T20:11:03.916Z,33.92
2023-05-01T20:13:31.387Z,31.60
2023-05-01T20:16:01.771Z,35.30
2023-05-01T20:18:29.237Z,33.13
2023-05-01T20:20:56.596Z,34.22
2023-05-01T20:23:23.567Z,34.22
2023-05-01T20:25:54.980Z,35.60
2023-05-01T20:28:22.462Z,31.00
2023-05-01T20:30:53.212Z,32.30
2023-05-01T20:33:20.556Z,32.28
2023-05-01T20:35:48.250Z,31.80
2023-05-01T20:38:15.040Z,34.97
2023-05-01T20:40:48.314Z,32.60
2023-05-01T20:43:17.658Z,33.83
2023-05-01T20:45:44.908Z,34.45
2023-05-01T20:48:15.269Z,32.03
2023-05-01T20:50:43.670Z,38.20
2023-05-01T20:53:11.280Z,40.80
2023-05-01T20:55:38.482Z,39.20
2023-05-01T20:58:06.241Z,43.20
2023-05-01T21:00:34.049Z,43.53
2023-05-01T21:03:01.428Z,37.83
2023-05-01T21:05:29.243Z,38.80
2023-05-01T21:07:58.192Z,40.70
2023-05-01T21:10:25.480Z,41.50
2023-05-01T21:12:54.525Z,33.97
2023-05-01T21:15:21.750Z,31.98
2023-05-01T21:17:49.217Z,27.10
2023-05-01T21:20:20.853Z,26.30
2023-05-01T21:22:49.089Z,26.73
2023-05-01T21:25:16.458Z,26.13
2023-05-01T21:27:43.772Z,25.42
2023-05-01T21:30:17.199Z,21.75
2023-05-01T21:32:44.544Z,22.75
2023-05-01T21:35:17.955Z,26.02
2023-05-01T21:37:46.673Z,22.23
2023-05-01T21:40:14.642Z,21.83
2023-05-01T21:42:42.296Z,20.08
2023-05-01T21:45:10.685Z,21.67
2023-05-01T21:47:40.121Z,19.90
2023-05-01T21:50:08.040Z,19.70
2023-05-01T21:52:35.966Z,20.67
2023-05-01T21:55:04.513Z,22.10
2023-05-01T21:57:31.951Z,22.52
2023-05-01T22:00:01.610Z,22.08
2023-05-01T22:02:31.824Z,22.23
2023-05-01T22:04:58.632Z,23.50
2023-05-01T22:07:25.860Z,24.77
2023-05-01T22:09:53.067Z,24.52
2023-05-01T22:12:20.204Z,24.55
2023-05-01T22:14:48.577Z,25.63
2023-05-01T22:17:24.066Z,23.90
2023-05-01T22:19:53.809Z,25.23
2023-05-01T22:22:21.006Z,25.50
2023-05-01T22:24:48.167Z,26.50
2023-05-01T22:27:18.369Z,26.45
2023-05-01T22:32:13.224Z,22.00
2023-05-01T22:34:40.132Z,23.42
2023-05-01T22:37:07.507Z,23.13
2023-05-01T22:39:36.401Z,23.70
2023-05-01T22:42:06.455Z,24.80
2023-05-01T22:44:33.742Z,24.38
2023-05-01T22:47:00.948Z,25.25
2023-05-01T22:49:28.700Z,23.15
2023-05-01T22:51:57.507Z,25.35
2023-05-01T22:54:25.075Z,23.67
2023-05-01T22:56:55.495Z,28.63
2023-05-01T22:59:22.784Z,25.10
2023-05-01T23:01:49.984Z,24.00
2023-05-01T23:04:17.489Z,25.92
2023-05-01T23:06:44.794Z,25.17
2023-05-01T23:09:12.427Z,23.55
2023-05-01T23:11:45.633Z,24.20
2023-05-01T23:14:13.368Z,26.70
2023-05-01T23:16:41.912Z,25.38
2023-05-01T23:19:23.064Z,27.88
2023-05-01T23:21:51.705Z,28.40
2023-05-01T23:24:21.470Z,29.75
2023-05-01T23:26:48.774Z,34.15
2023-05-01T23:29:16.737Z,32.47
2023-05-01T23:31:48.730Z,28.27
2023-05-01T23:34:17.723Z,32.60
2023-05-01T23:36:48.349Z,37.60
2023-05-01T23:39:16.430Z,34.00
2023-05-01T23:41:45.002Z,33.97
2023-05-01T23:44:12.393Z,34.33
2023-05-01T23:46:39.547Z,32.15
2023-05-01T23:49:07.065Z,33.05
2023-05-01T23:51:35.485Z,33.90
2023-05-01T23:54:04.383Z,32.10
2023-05-01T23:56:31.731Z,35.35
2023-05-01T23:58:59.017Z,29.70
